Time;durP1;ratioP1;P1;durP2;ratioP2;P2;SDS_P1;SDS_P2;PMS_P1;PMS_P2;Temp;Humidity;BMP_temperature;BMP_pressure;BME280_temperature;BME280_humidity;BME280_pressure;Samples;Min_cycle;Max_cycle;Signal;HPM_P1;HPM_P2
2021/03/26 00:02:13;;;;;;;11.12;7.60;;;;;;;2.77;42.36;99990.06;1826224;78;21112;-64
2021/03/26 00:04:41;;;;;;;13.38;7.62;;;;;;;2.72;42.53;99992.97;1790187;78;21153;-63
2021/03/26 00:07:12;;;;;;;16.27;8.75;;;;;;;2.66;42.62;99996.39;1785065;79;21181;-63
2021/03/26 00:09:41;;;;;;;14.10;8.33;;;;;;;2.62;42.79;100001.27;1826256;78;21650;-63
2021/03/26 00:12:14;;;;;;;13.45;8.43;;;;;;;2.57;42.86;100004.49;1826126;78;21014;-62
2021/03/26 00:14:41;;;;;;;12.43;9.03;;;;;;;2.54;42.99;100003.52;1826262;78;21053;-66
2021/03/26 00:17:10;;;;;;;11.97;8.90;;;;;;;2.51;43.15;100000.44;1826326;78;21093;-66
2021/03/26 00:19:38;;;;;;;12.53;9.18;;;;;;;2.46;43.30;100003.66;1854946;76;21587;-67
2021/03/26 00:22:06;;;;;;;15.47;8.97;;;;;;;2.42;43.48;100000.25;1830336;77;21014;-67
2021/03/26 00:24:34;;;;;;;17.43;10.00;;;;;;;2.40;43.65;100001.76;1817851;79;21171;-66
2021/03/26 00:27:02;;;;;;;17.15;8.35;;;;;;;2.40;43.70;100003.09;1817919;79;21128;-66
2021/03/26 00:29:29;;;;;;;15.97;8.27;;;;;;;2.39;43.80;100000.14;1852304;77;21555;-65
2021/03/26 00:31:58;;;;;;;13.75;8.40;;;;;;;2.39;43.89;100002.80;1856988;77;21368;-66
2021/03/26 00:34:26;;;;;;;16.97;11.03;;;;;;;2.38;43.94;100010.43;1856865;77;21634;-65
2021/03/26 00:36:57;;;;;;;12.17;8.53;;;;;;;2.37;44.04;100003.98;1857020;77;21149;-64
2021/03/26 00:39:25;;;;;;;14.70;8.70;;;;;;;2.35;44.16;100002.03;1816191;77;21105;-67
2021/03/26 00:41:53;;;;;;;15.83;8.93;;;;;;;2.30;44.34;99999.95;1816470;79;21165;-66
2021/03/26 00:44:21;;;;;;;16.60;8.08;;;;;;;2.27;44.62;100006.12;1816405;79;21203;-64
2021/03/26 00:46:48;;;;;;;14.47;8.70;;;;;;;2.23;44.78;100004.35;1816333;79;21123;-67
2021/03/26 00:49:16;;;;;;;18.07;9.03;;;;;;;2.19;45.07;100000.44;1801885;77;21103;-65
2021/03/26 00:51:44;;;;;;;15.97;9.20;;;;;;;2.13;45.31;100007.31;1795815;79;21195;-66
2021/03/26 00:54:15;;;;;;;18.13;10.37;;;;;;;2.08;45.57;99997.77;1842044;77;21132;-66
2021/03/26 00:56:41;;;;;;;12.75;8.70;;;;;;;2.03;45.57;100005.96;1851359;77;21376;-64
2021/03/26 00:59:09;;;;;;;12.80;8.20;;;;;;;1.97;45.89;100008.85;1803828;77;21075;-65
2021/03/26 01:01:37;;;;;;;17.07;9.97;;;;;;;1.96;46.18;100005.91;1850154;77;21121;-66
2021/03/26 01:04:06;;;;;;;15.33;9.43;;;;;;;1.92;46.66;100003.81;1827550;77;21204;-64
2021/03/26 01:06:34;;;;;;;15.40;9.87;;;;;;;1.88;47.04;100007.81;1825601;78;21172;-66
2021/03/26 01:09:03;;;;;;;20.07;10.37;;;;;;;1.86;47.22;100013.83;1817673;77;21188;-64
2021/03/26 01:11:34;;;;;;;19.67;11.30;;;;;;;1.83;47.43;100010.20;1823065;78;21122;-66
2021/03/26 01:14:05;;;;;;;18.67;9.83;;;;;;;1.80;47.77;100008.76;1788051;78;21153;-66
2021/03/26 01:16:36;;;;;;;22.95;10.95;;;;;;;1.82;47.80;100009.91;1796859;79;21021;-66
2021/03/26 01:19:09;;;;;;;16.50;10.50;;;;;;;1.81;47.73;100016.21;1805268;77;21123;-67
2021/03/26 01:21:37;;;;;;;17.83;10.33;;;;;;;1.81;47.81;100010.91;1828898;77;21388;-69
2021/03/26 01:24:08;;;;;;;19.23;10.97;;;;;;;1.81;47.87;100013.06;1789803;78;21699;-65
2021/03/26 01:26:36;;;;;;;14.73;9.57;;;;;;;1.80;47.97;100011.41;1770062;80;21551;-65
2021/03/26 01:29:33;;;;;;;17.23;11.00;;;;;;;1.87;47.96;100008.31;1846277;76;22801;-64
2021/03/26 01:32:03;;;;;;;15.37;10.20;;;;;;;1.83;47.98;100005.73;1813725;79;21595;-65
2021/03/26 01:34:34;;;;;;;19.40;11.40;;;;;;;1.84;47.95;100013.18;1776125;79;22312;-65
2021/03/26 01:37:05;;;;;;;19.27;12.30;;;;;;;1.87;47.82;100015.48;1805714;79;21006;-67
2021/03/26 01:39:34;;;;;;;18.47;11.17;;;;;;;1.91;47.75;100016.75;1785586;79;20947;-66
2021/03/26 01:42:02;;;;;;;18.87;12.20;;;;;;;1.96;47.62;100009.05;1785985;79;21051;-63
2021/03/26 01:44:31;;;;;;;23.77;10.27;;;;;;;2.03;47.36;100013.92;1759661;79;20999;-62
2021/03/26 01:47:01;;;;;;;17.70;10.53;;;;;;;2.08;47.15;100015.51;1792334;79;21200;-62
2021/03/26 01:49:30;;;;;;;16.90;10.47;;;;;;;2.14;46.92;100018.75;1794120;79;21582;-62
2021/03/26 01:52:03;;;;;;;15.17;8.07;;;;;;;2.21;46.76;100014.31;1784877;79;21627;-62
2021/03/26 01:54:31;;;;;;;20.27;9.90;;;;;;;2.27;46.55;100024.69;1786747;79;21144;-61
2021/03/26 01:57:01;;;;;;;16.70;8.23;;;;;;;2.33;46.41;100019.97;1784850;80;21117;-62
2021/03/26 01:59:40;;;;;;;13.13;7.47;;;;;;;2.37;46.25;100022.05;1806097;79;21207;-62
2021/03/26 02:02:17;;;;;;;12.50;7.27;;;;;;;2.42;46.00;100016.17;1815856;79;21126;-61
2021/03/26 02:05:09;;;;;;;11.43;6.60;;;;;;;2.52;45.66;100020.67;1846244;76;22635;-63
2021/03/26 02:07:38;;;;;;;16.43;7.57;;;;;;;2.51;45.56;100021.17;1815513;79;20983;-62
2021/03/26 02:10:09;;;;;;;11.77;6.77;;;;;;;2.53;45.35;100016.51;1816167;79;21409;-61
2021/03/26 02:12:39;;;;;;;11.30;6.80;;;;;;;2.58;45.29;100027.38;1813222;79;21692;-62
2021/03/26 02:15:18;;;;;;;11.77;6.63;;;;;;;2.61;45.21;100026.98;1734276;82;21057;-62
2021/03/26 02:17:47;;;;;;;11.57;6.97;;;;;;;2.65;45.10;100026.09;1732026;81;21022;-64
2021/03/26 02:20:41;;;;;;;12.77;7.23;;;;;;;2.66;45.09;100029.07;1727548;81;21556;-64
2021/03/26 02:23:19;;;;;;;16.48;8.30;;;;;;;2.67;44.93;100030.72;1758579;80;21370;-63
2021/03/26 02:26:34;;;;;;;15.27;8.10;;;;;;;2.76;44.79;100026.09;1809887;77;22747;-63
2021/03/26 02:29:22;;;;;;;12.63;7.30;;;;;;;2.73;44.74;100030.47;1781224;79;21007;-64
2021/03/26 02:32:04;;;;;;;15.53;9.00;;;;;;;2.79;44.71;100025.20;1875620;76;23342;-62
2021/03/26 02:34:33;;;;;;;11.97;7.83;;;;;;;2.76;44.70;100028.75;1819578;77;21028;-64
2021/03/26 02:37:07;;;;;;;11.20;6.87;;;;;;;2.76;44.74;100031.41;1851562;77;22073;-64
2021/03/26 02:39:40;;;;;;;13.38;7.10;;;;;;;2.77;44.76;100028.57;1853776;77;22071;-65
2021/03/26 02:42:27;;;;;;;12.90;7.03;;;;;;;2.78;44.65;100020.89;1771836;79;21047;-62
2021/03/26 02:45:21;;;;;;;15.60;7.50;;;;;;;2.80;44.57;100033.48;1828741;77;20929;-62
2021/03/26 02:48:05;;;;;;;10.90;7.03;;;;;;;2.80;44.59;100028.68;1807610;77;20979;-62
2021/03/26 02:51:00;;;;;;;9.30;6.80;;;;;;;2.79;44.59;100035.82;1813862;79;21011;-63
2021/03/26 02:53:53;;;;;;;11.70;7.30;;;;;;;2.77;44.63;100035.20;1853343;77;21074;-60
2021/03/26 02:56:40;;;;;;;9.33;6.57;;;;;;;2.75;44.71;100035.06;1812337;79;21014;-62
2021/03/26 02:59:18;;;;;;;10.20;6.27;;;;;;;2.72;44.93;100033.63;1844538;77;21229;-62
2021/03/26 03:01:52;;;;;;;9.20;6.43;;;;;;;2.69;45.20;100046.45;1760541;80;21588;-63
2021/03/26 03:04:32;;;;;;;14.38;8.40;;;;;;;2.66;45.43;100045.00;1820908;78;21445;-62
2021/03/26 03:07:32;;;;;;;15.20;10.23;;;;;;;2.62;45.62;100043.24;1822593;77;21133;-62
2021/03/26 03:10:27;;;;;;;16.67;9.87;;;;;;;2.63;45.72;100040.91;1883197;76;22719;-63
2021/03/26 03:13:12;;;;;;;28.67;18.30;;;;;;;2.57;45.78;100047.47;1781870;80;21042;-61
2021/03/26 03:15:53;;;;;;;24.93;15.93;;;;;;;2.53;45.94;100047.03;1790804;77;21515;-62
2021/03/26 03:18:26;;;;;;;20.70;13.07;;;;;;;2.51;46.04;100046.39;1836644;77;21264;-62
2021/03/26 03:21:28;;;;;;;18.50;10.30;;;;;;;2.48;46.25;100052.09;1789833;78;21293;-63
2021/03/26 03:24:12;;;;;;;15.95;10.78;;;;;;;2.46;46.31;100053.27;1828706;77;21011;-61
2021/03/26 03:27:06;;;;;;;13.63;9.33;;;;;;;2.44;46.42;100052.16;1850725;77;21030;-62
2021/03/26 03:30:00;;;;;;;15.50;9.83;;;;;;;2.44;46.54;100062.77;1789256;78;22302;-62
2021/03/26 03:33:17;;;;;;;14.13;7.73;;;;;;;2.41;46.72;100063.13;1819785;78;21042;-63
2021/03/26 03:36:00;;;;;;;11.77;7.50;;;;;;;2.39;46.80;100069.65;1825566;77;21031;-61
2021/03/26 03:38:35;;;;;;;11.30;7.97;;;;;;;2.38;46.90;100068.83;1831047;77;21164;-61
2021/03/26 03:41:15;;;;;;;9.10;6.43;;;;;;;2.36;47.04;100068.17;1820908;78;21090;-62
2021/03/26 03:44:10;;;;;;;8.60;6.27;;;;;;;2.34;47.40;100066.73;1823456;77;21615;-62
2021/03/26 03:46:53;;;;;;;11.50;6.23;;;;;;;2.28;47.57;100064.82;1847708;77;21208;-61
2021/03/26 03:49:47;;;;;;;10.27;6.97;;;;;;;2.23;48.12;100061.91;1820884;78;21185;-62
2021/03/26 03:52:52;;;;;;;11.20;7.23;;;;;;;2.17;48.63;100053.68;1846734;76;22898;-61
2021/03/26 03:55:34;;;;;;;8.50;6.30;;;;;;;2.10;48.80;100063.41;1793901;79;20999;-62
2021/03/26 03:58:15;;;;;;;11.57;6.63;;;;;;;2.05;49.01;100063.14;1793913;79;22219;-61
2021/03/26 04:00:59;;;;;;;8.63;5.73;;;;;;;2.04;49.04;100064.64;1815209;79;20936;-63
2021/03/26 04:03:38;;;;;;;11.53;7.03;;;;;;;2.03;49.33;100061.67;1805098;79;21575;-62
2021/03/26 04:06:20;;;;;;;9.37;5.50;;;;;;;2.02;49.46;100067.47;1785915;79;21563;-62
2021/03/26 04:08:57;;;;;;;8.88;6.22;;;;;;;1.99;49.83;100069.68;1734351;82;21093;-61
2021/03/26 04:11:30;;;;;;;11.03;6.17;;;;;;;1.93;50.42;100067.76;1746750;81;21369;-63
2021/03/26 04:14:30;;;;;;;8.90;5.77;;;;;;;1.88;50.35;100064.34;1792339;79;21082;-64
2021/03/26 04:17:05;;;;;;;9.07;5.50;;;;;;;1.88;50.54;100072.29;1813565;79;20991;-62
2021/03/26 04:19:38;;;;;;;9.20;5.77;;;;;;;1.88;51.12;100075.44;1743493;80;21148;-65
2021/03/26 04:22:09;;;;;;;9.90;5.80;;;;;;;1.81;51.58;100070.07;1708508;80;22271;-65
2021/03/26 04:25:25;;;;;;;9.17;6.10;;;;;;;1.78;52.26;100069.09;1847069;76;22638;-64
2021/03/26 04:28:18;;;;;;;16.57;7.40;;;;;;;1.69;52.64;100072.85;1815418;78;20951;-65
2021/03/26 04:30:53;;;;;;;11.77;5.93;;;;;;;1.66;52.95;100072.73;1816675;78;21266;-64
2021/03/26 04:33:39;;;;;;;10.97;6.03;;;;;;;1.66;53.54;100072.73;1845744;76;22690;-67
2021/03/26 04:36:08;;;;;;;13.30;8.63;;;;;;;1.60;53.90;100081.41;1817201;79;21027;-64
2021/03/26 04:38:57;;;;;;;12.55;6.92;;;;;;;1.56;53.99;100081.95;1811272;79;22124;-66
2021/03/26 04:41:42;;;;;;;13.70;8.07;;;;;;;1.50;54.65;100094.09;1770586;79;21050;-65
2021/03/26 04:44:16;;;;;;;14.80;8.30;;;;;;;1.47;54.99;100093.64;1816284;79;21546;-64
2021/03/26 04:46:52;;;;;;;17.60;9.73;;;;;;;1.41;55.47;100095.69;1817157;79;21046;-65
2021/03/26 04:49:38;;;;;;;15.50;8.47;;;;;;;1.38;55.70;100099.53;1763673;80;20987;-64
2021/03/26 04:52:27;;;;;;;18.50;9.07;;;;;;;1.37;56.26;100103.68;1772789;79;21439;-66
2021/03/26 04:55:12;;;;;;;16.97;8.13;;;;;;;1.34;56.66;100100.08;1790799;79;21003;-63
2021/03/26 04:57:55;;;;;;;18.70;10.30;;;;;;;1.37;56.81;100110.30;1803606;79;21121;-64
2021/03/26 05:00:34;;;;;;;13.83;7.20;;;;;;;1.40;56.85;100106.78;1817255;79;21046;-64
2021/03/26 05:03:13;;;;;;;14.27;7.67;;;;;;;1.46;56.95;100108.72;1812561;78;21146;-65
2021/03/26 05:05:47;;;;;;;11.27;6.73;;;;;;;1.53;56.88;100111.48;1788652;79;22029;-65
2021/03/26 05:08:26;;;;;;;11.48;7.40;;;;;;;1.59;56.92;100110.73;1807910;79;21027;-62
2021/03/26 05:11:12;;;;;;;11.73;7.43;;;;;;;1.65;56.97;100116.14;1785051;79;21176;-62
2021/03/26 05:13:53;;;;;;;22.67;12.30;;;;;;;1.72;57.05;100116.25;1775095;80;21167;-64
2021/03/26 05:16:31;;;;;;;12.82;8.68;;;;;;;1.78;57.03;100118.15;1759703;81;21156;-64
2021/03/26 05:19:23;;;;;;;12.68;7.10;;;;;;;1.87;56.97;100114.93;1784586;80;21388;-63
2021/03/26 05:22:16;;;;;;;11.75;8.35;;;;;;;1.93;57.13;100118.16;1777679;80;21575;-62
2021/03/26 05:25:32;;;;;;;15.53;8.80;;;;;;;1.98;57.13;100120.58;1705275;84;21022;-63
2021/03/26 05:28:24;;;;;;;13.95;9.33;;;;;;;2.11;57.15;100118.09;1863156;76;27760;-63
2021/03/26 05:30:54;;;;;;;15.87;8.53;;;;;;;2.14;57.14;100127.52;1818802;78;21009;-64
2021/03/26 05:33:41;;;;;;;12.23;8.77;;;;;;;2.23;57.05;100125.59;1848495;77;21356;-63
2021/03/26 05:36:19;;;;;;;10.90;7.40;;;;;;;2.31;56.93;100128.13;1854310;77;21011;-62
2021/03/26 05:39:13;;;;;;;16.07;7.93;;;;;;;2.38;56.87;100129.88;1837344;77;21042;-63
2021/03/26 05:42:32;;;;;;;;;;;;;;;2.47;56.61;100134.06;1822534;77;20971;-64
2021/03/26 05:45:24;;;;;;;12.80;7.83;;;;;;;2.55;56.48;100131.28;1820711;78;20136;-64
2021/03/26 05:48:30;;;;;;;13.13;8.03;;;;;;;2.62;56.23;100131.37;1824963;77;23124;-64
2021/03/26 05:51:24;;;;;;;10.33;6.13;;;;;;;2.70;56.04;100127.26;1793343;79;21582;-64
2021/03/26 05:54:49;;;;;;;13.20;8.10;;;;;;;2.81;55.88;100131.26;1702769;82;20995;-64
2021/03/26 05:57:35;;;;;;;11.53;6.73;;;;;;;2.90;55.41;100130.95;1750872;82;21146;-64
2021/03/26 06:00:30;;;;;;;10.80;6.67;;;;;;;3.03;55.05;100135.55;1849896;77;21137;-62
2021/03/26 06:03:37;;;;;;;10.77;6.57;;;;;;;3.14;54.74;100139.55;1780383;79;21388;-64
2021/03/26 06:07:08;;;;;;;12.50;6.40;;;;;;;3.26;54.44;100140.69;1821324;77;21087;-63
2021/03/26 06:10:20;;;;;;;11.13;6.60;;;;;;;3.38;54.06;100137.81;1820884;78;21204;-64
2021/03/26 06:13:47;;;;;;;14.93;7.77;;;;;;;3.50;53.89;100149.59;1823013;77;21117;-65
2021/03/26 06:16:53;;;;;;;13.70;6.90;;;;;;;3.61;53.72;100142.38;1802394;77;21544;-65
2021/03/26 06:19:58;;;;;;;11.10;7.13;;;;;;;3.71;53.41;100144.70;1845668;77;21199;-65
2021/03/26 06:23:08;;;;;;;15.97;9.40;;;;;;;3.87;53.24;100141.75;1793726;77;33799;-64
2021/03/26 06:26:42;;;;;;;12.82;8.25;;;;;;;3.92;52.92;100142.81;1781279;80;20997;-66
2021/03/26 06:29:42;;;;;;;11.57;7.42;;;;;;;4.05;52.35;100148.71;1773123;80;22281;-67
2021/03/26 06:32:54;;;;;;;11.53;8.08;;;;;;;4.14;52.63;100147.53;1766598;80;21028;-64
2021/03/26 06:35:53;;;;;;;15.85;7.58;;;;;;;4.22;52.71;100141.23;1781229;80;20999;-64
2021/03/26 06:38:56;;;;;;;16.85;7.22;;;;;;;4.29;52.40;100140.23;1781267;80;21066;-62
2021/03/26 06:41:52;;;;;;;14.10;8.35;;;;;;;4.39;52.03;100146.52;1775932;80;21052;-64
2021/03/26 06:45:02;;;;;;;13.30;8.48;;;;;;;4.49;51.68;100142.16;1704581;84;21097;-64
2021/03/26 06:47:52;;;;;;;12.65;8.18;;;;;;;4.58;51.26;100143.11;1709790;83;21061;-65
2021/03/26 06:51:01;;;;;;;9.35;6.37;;;;;;;4.70;50.75;100140.17;1709971;83;20955;-63
2021/03/26 06:54:18;;;;;;;11.22;7.17;;;;;;;4.81;50.24;100144.92;1719670;82;21035;-63
2021/03/26 06:57:31;;;;;;;12.60;7.85;;;;;;;4.95;49.74;100146.27;1688367;85;21148;-65
2021/03/26 07:00:45;;;;;;;9.93;6.70;;;;;;;5.09;49.27;100146.61;1709704;84;21339;-63
2021/03/26 07:03:34;;;;;;;10.32;7.67;;;;;;;5.22;48.96;100150.14;1710421;82;21129;-63
2021/03/26 07:06:53;;;;;;;14.47;8.25;;;;;;;5.38;48.33;100153.41;1703848;84;21236;-62
2021/03/26 07:09:55;;;;;;;12.93;7.28;;;;;;;5.50;47.99;100150.44;1709973;83;21673;-62
2021/03/26 07:12:56;;;;;;;14.70;9.55;;;;;;;5.66;47.50;100148.67;1714718;83;24906;-63
2021/03/26 07:15:38;;;;;;;12.98;7.40;;;;;;;5.82;47.25;100148.77;1726946;83;23626;-64
2021/03/26 07:18:33;;;;;;;10.48;7.03;;;;;;;5.95;46.70;100143.43;1699416;84;21060;-63
2021/03/26 07:21:29;;;;;;;10.85;7.60;;;;;;;6.07;45.76;100145.78;1697288;84;21164;-63
2021/03/26 07:24:08;;;;;;;14.63;8.20;;;;;;;6.20;45.52;100140.91;1657559;85;21228;-67
2021/03/26 07:26:52;;;;;;;16.97;8.35;;;;;;;6.32;45.67;100137.39;1657365;86;21169;-63
2021/03/26 07:29:31;;;;;;;18.15;7.20;;;;;;;6.44;45.52;100150.38;1657320;86;21384;-64
2021/03/26 07:32:25;;;;;;;12.90;8.40;;;;;;;6.55;45.53;100144.38;1664140;85;21912;-64
2021/03/26 07:35:30;;;;;;;9.40;7.35;;;;;;;6.66;44.63;100151.42;1678669;85;21586;-63
2021/03/26 07:38:15;;;;;;;12.23;6.62;;;;;;;6.80;43.97;100150.33;1669361;85;21575;-64
2021/03/26 07:41:17;;;;;;;20.75;9.33;;;;;;;6.92;43.60;100158.78;1684571;85;21154;-65
2021/03/26 07:44:13;;;;;;;14.65;8.35;;;;;;;7.06;43.19;100164.04;1659664;85;21710;-62
2021/03/26 07:47:32;;;;;;;9.88;7.00;;;;;;;7.16;42.88;100163.88;1657513;85;21212;-66
2021/03/26 07:50:27;;;;;;;8.90;5.45;;;;;;;7.25;42.67;100169.78;1656815;86;21209;-64
2021/03/26 07:53:23;;;;;;;;;;;;;;;7.36;42.08;100165.08;1667982;85;21046;-64
2021/03/26 07:56:27;;;;;;;9.50;6.12;;;;;;;7.44;42.47;100165.63;1617509;86;20259;-63
2021/03/26 07:59:45;;;;;;;10.15;6.97;;;;;;;7.54;42.27;100175.02;1626925;86;22167;-63
2021/03/26 08:02:34;;;;;;;8.60;5.22;;;;;;;7.63;41.60;100177.20;1656702;86;21228;-63
2021/03/26 08:05:21;;;;;;;15.60;6.42;;;;;;;7.73;41.13;100180.22;1661111;85;21078;-64
2021/03/26 08:08:47;;;;;;;7.17;4.87;;;;;;;7.83;41.06;100179.20;1711706;83;21053;-63
2021/03/26 08:11:40;;;;;;;8.28;5.72;;;;;;;7.93;40.96;100168.50;1711693;83;21225;-64
2021/03/26 08:14:23;;;;;;;9.13;4.60;;;;;;;8.04;40.67;100171.28;1711494;83;21390;-65
2021/03/26 08:17:00;;;;;;;9.20;4.92;;;;;;;8.12;40.30;100175.52;1711785;83;21602;-65
2021/03/26 08:19:39;;;;;;;10.03;5.28;;;;;;;8.15;39.82;100173.21;1701766;84;21014;-63
2021/03/26 08:22:33;;;;;;;12.33;6.12;;;;;;;8.22;40.22;100177.99;1706963;83;21145;-64
2021/03/26 08:25:32;;;;;;;;;;;;;;;8.30;39.86;100177.72;1684243;84;21189;-66
2021/03/26 08:28:22;;;;;;;6.42;4.08;;;;;;;8.39;39.86;100180.13;1668976;86;21387;-63
2021/03/26 08:31:28;;;;;;;5.97;4.87;;;;;;;8.49;39.78;100185.78;1661229;86;21201;-63
2021/03/26 08:34:20;;;;;;;7.03;4.83;;;;;;;8.59;39.10;100169.97;1683251;84;21024;-68
2021/03/26 08:37:16;;;;;;;7.87;4.95;;;;;;;8.66;39.21;100178.77;1691849;84;21214;-64
2021/03/26 08:39:51;;;;;;;7.28;4.67;;;;;;;8.72;39.63;100182.72;1679390;84;21775;-66
2021/03/26 08:42:36;;;;;;;7.12;4.67;;;;;;;8.82;39.17;100182.18;1692027;84;21353;-66
2021/03/26 08:45:26;;;;;;;6.72;4.15;;;;;;;8.90;37.44;100179.69;1706615;82;21138;-65
2021/03/26 08:48:23;;;;;;;21.37;10.65;;;;;;;8.95;37.41;100177.97;1682665;82;21252;-64
2021/03/26 08:51:29;;;;;;;8.48;5.50;;;;;;;9.01;37.77;100178.41;1735464;82;21063;-64
2021/03/26 08:54:40;;;;;;;5.75;4.12;;;;;;;9.09;37.94;100174.58;1736604;82;21122;-63
2021/03/26 08:57:26;;;;;;;6.47;4.28;;;;;;;9.13;37.02;100186.48;1707116;84;21463;-63
2021/03/26 09:00:14;;;;;;;12.28;4.78;;;;;;;9.21;36.83;100175.97;1707116;84;21055;-65
2021/03/26 09:02:55;;;;;;;9.18;5.75;;;;;;;9.31;37.01;100173.52;1707140;83;21572;-64
2021/03/26 09:05:46;;;;;;;8.98;4.55;;;;;;;9.39;37.03;100179.92;1716676;82;21027;-63
2021/03/26 09:08:24;;;;;;;8.15;5.10;;;;;;;9.45;37.18;100178.98;1736953;82;21130;-63
2021/03/26 09:11:29;;;;;;;5.28;3.62;;;;;;;9.56;37.12;100184.91;1736782;82;21995;-63
2021/03/26 09:14:47;;;;;;;6.42;4.37;;;;;;;9.67;36.37;100188.14;1736501;82;21166;-66
2021/03/26 09:17:30;;;;;;;7.72;4.87;;;;;;;9.74;35.97;100189.36;1736432;82;21007;-62
2021/03/26 09:20:26;;;;;;;7.53;4.97;;;;;;;9.79;36.22;100181.42;1732886;82;21071;-64
2021/03/26 09:23:25;;;;;;;9.48;5.37;;;;;;;9.85;36.13;100181.84;1731747;81;21194;-62
2021/03/26 09:25:55;;;;;;;8.68;6.30;;;;;;;9.96;36.14;100195.81;1729095;82;21541;-64
2021/03/26 09:28:33;;;;;;;9.98;6.28;;;;;;;10.02;35.78;100188.97;1744412;82;21611;-65
2021/03/26 09:31:24;;;;;;;11.05;5.90;;;;;;;10.07;35.88;100191.77;1744663;82;21197;-66
2021/03/26 09:34:01;;;;;;;7.72;5.25;;;;;;;10.18;36.29;100178.59;1744733;82;21097;-65
2021/03/26 09:36:33;;;;;;;9.10;5.12;;;;;;;10.28;36.62;100185.02;1743904;82;21129;-64
2021/03/26 09:39:09;;;;;;;6.80;5.40;;;;;;;10.34;36.60;100183.27;1744690;82;21435;-66
2021/03/26 09:41:50;;;;;;;12.05;5.35;;;;;;;10.39;36.60;100181.50;1714938;83;21146;-64
2021/03/26 09:44:34;;;;;;;10.78;5.15;;;;;;;10.41;36.36;100188.79;1714955;83;21190;-66
2021/03/26 09:47:25;;;;;;;9.88;5.65;;;;;;;10.49;36.26;100183.06;1707324;83;21181;-64
2021/03/26 09:50:04;;;;;;;6.87;5.33;;;;;;;10.48;36.38;100209.66;1685274;82;21177;-66
2021/03/26 09:52:40;;;;;;;6.45;4.60;;;;;;;10.57;36.30;100198.01;1737136;82;21570;-65
2021/03/26 09:55:13;;;;;;;11.65;5.35;;;;;;;10.66;36.15;100193.89;1744626;82;21027;-64
2021/03/26 09:58:20;;;;;;;7.08;5.12;;;;;;;10.75;35.88;100194.33;1744823;82;21150;-65
2021/03/26 10:01:04;;;;;;;8.78;5.37;;;;;;;10.79;35.99;100188.23;1737848;82;21158;-64
2021/03/26 10:03:54;;;;;;;12.58;5.58;;;;;;;10.83;36.30;100196.66;1744340;81;21552;-66
2021/03/26 10:07:05;;;;;;;11.40;6.12;;;;;;;10.85;36.85;100189.97;1741373;82;22201;-64
2021/03/26 10:09:42;;;;;;;8.68;5.62;;;;;;;10.84;36.55;100180.25;1739401;82;21050;-65
2021/03/26 10:12:25;;;;;;;8.00;4.50;;;;;;;10.85;36.41;100187.28;1714861;83;21026;-67
2021/03/26 10:15:01;;;;;;;7.80;5.45;;;;;;;10.91;36.50;100194.93;1715037;82;21046;-65
2021/03/26 10:17:41;;;;;;;8.73;5.55;;;;;;;10.96;36.46;100190.99;1715162;82;21615;-62
2021/03/26 10:20:39;;;;;;;8.18;6.10;;;;;;;11.04;36.71;100193.29;1716821;82;22316;-64
2021/03/26 10:23:35;;;;;;;7.00;5.92;;;;;;;11.13;36.05;100184.30;1727077;81;21642;-65
2021/03/26 10:26:40;;;;;;;12.45;5.42;;;;;;;11.20;35.15;100174.20;1692263;84;22336;-62
2021/03/26 10:29:28;;;;;;;6.22;4.67;;;;;;;11.28;35.05;100178.66;1692172;84;22269;-63
2021/03/26 10:32:08;;;;;;;7.80;5.12;;;;;;;11.25;33.69;100168.39;1722405;82;21769;-64
2021/03/26 10:34:41;;;;;;;10.93;5.60;;;;;;;11.29;33.94;100172.23;1723654;82;21970;-64
2021/03/26 10:37:41;;;;;;;6.47;5.00;;;;;;;11.34;33.67;100174.19;1692087;84;21089;-64
2021/03/26 10:40:37;;;;;;;8.65;5.78;;;;;;;11.42;33.89;100169.74;1728670;82;21187;-64
2021/03/26 10:43:29;;;;;;;8.65;5.58;;;;;;;11.49;33.59;100174.45;1719840;82;21559;-63
2021/03/26 10:46:05;;;;;;;10.50;5.20;;;;;;;11.53;33.48;100178.81;1677758;82;21536;-68
2021/03/26 10:49:00;;;;;;;7.22;5.40;;;;;;;11.56;33.76;100171.61;1724889;82;22232;-65
2021/03/26 10:51:57;;;;;;;9.15;5.20;;;;;;;11.60;33.60;100175.45;1707107;84;21179;-66
2021/03/26 10:54:51;;;;;;;11.88;5.33;;;;;;;11.59;33.82;100169.23;1712578;82;21158;-65
2021/03/26 10:57:38;;;;;;;8.03;5.50;;;;;;;11.65;34.07;100176.35;1734399;82;21178;-64
2021/03/26 11:00:29;;;;;;;10.93;7.40;;;;;;;11.75;33.86;100175.17;1736334;82;21190;-63
2021/03/26 11:03:11;;;;;;;7.80;5.62;;;;;;;11.88;33.93;100167.30;1725797;82;21747;-61
2021/03/26 11:06:00;;;;;;;10.10;6.22;;;;;;;12.01;33.70;100168.30;1733476;82;21035;-65
2021/03/26 11:08:41;;;;;;;9.95;5.00;;;;;;;12.03;33.43;100161.32;1733396;82;21059;-62
2021/03/26 11:11:22;;;;;;;12.28;6.37;;;;;;;11.89;33.26;100170.81;1736686;82;21173;-65
2021/03/26 11:14:06;;;;;;;7.15;5.33;;;;;;;11.87;33.58;100174.28;1733086;81;21055;-63
2021/03/26 11:17:04;;;;;;;16.02;5.35;;;;;;;11.99;33.67;100172.31;1718725;82;21212;-63
2021/03/26 11:19:38;;;;;;;4.92;4.00;;;;;;;12.12;33.52;100174.66;1709042;82;21185;-63
2021/03/26 11:22:19;;;;;;;6.60;5.12;;;;;;;12.31;33.09;100170.61;1709232;82;21067;-65
2021/03/26 11:25:09;;;;;;;7.87;5.75;;;;;;;12.48;32.98;100170.55;1722366;82;21070;-64
2021/03/26 11:27:46;;;;;;;7.70;5.15;;;;;;;12.49;32.52;100176.23;1747056;82;21137;-63
2021/03/26 11:30:42;;;;;;;12.20;5.30;;;;;;;12.42;32.90;100168.88;1658973;85;21399;-63
2021/03/26 11:33:27;;;;;;;7.65;5.97;;;;;;;12.40;32.75;100181.78;1720725;82;21153;-62
2021/03/26 11:35:56;;;;;;;7.83;4.90;;;;;;;12.44;32.84;100165.38;1734159;82;21149;-64
2021/03/26 11:38:28;;;;;;;8.68;5.87;;;;;;;12.36;33.00;100177.95;1699437;82;21173;-64
2021/03/26 11:41:07;;;;;;;7.08;5.60;;;;;;;12.44;33.24;100157.28;1748286;82;21126;-66
2021/03/26 11:43:50;;;;;;;7.85;6.35;;;;;;;12.45;33.24;100172.41;1721030;82;22627;-65
2021/03/26 11:46:21;;;;;;;6.55;5.28;;;;;;;12.58;33.33;100159.88;1750614;82;21161;-63
2021/03/26 11:49:02;;;;;;;6.17;4.42;;;;;;;12.72;33.26;100157.61;1749590;82;21007;-62
2021/03/26 11:51:44;;;;;;;12.47;6.83;;;;;;;12.81;32.96;100157.45;1720625;83;21054;-63
2021/03/26 11:54:45;;;;;;;9.10;6.07;;;;;;;12.86;32.85;100171.82;1694727;83;21622;-63
2021/03/26 11:57:24;;;;;;;11.35;7.12;;;;;;;12.85;33.25;100170.22;1729604;82;21201;-62
2021/03/26 12:00:13;;;;;;;9.80;6.30;;;;;;;12.79;33.37;100165.00;1723325;82;21134;-65
2021/03/26 12:03:04;;;;;;;10.93;7.08;;;;;;;12.79;33.56;100149.63;1750435;82;21015;-63
2021/03/26 12:05:42;;;;;;;11.30;5.90;;;;;;;12.74;33.52;100147.39;1714320;83;21089;-63
2021/03/26 12:08:32;;;;;;;7.40;5.75;;;;;;;12.73;34.17;100161.42;1731302;82;21654;-66
2021/03/26 12:11:14;;;;;;;8.43;6.28;;;;;;;12.79;34.30;100145.58;1730479;82;21615;-64
2021/03/26 12:13:53;;;;;;;7.97;5.05;;;;;;;12.83;34.38;100139.95;1719246;82;21200;-62
2021/03/26 12:16:29;;;;;;;14.53;6.28;;;;;;;12.92;34.42;100147.88;1740328;82;21047;-64
2021/03/26 12:19:07;;;;;;;6.15;5.35;;;;;;;12.95;34.38;100160.85;1745393;82;21133;-64
2021/03/26 12:21:57;;;;;;;18.57;8.88;;;;;;;12.87;34.33;100141.59;1748298;82;21752;-66
2021/03/26 12:25:02;;;;;;;18.87;9.13;;;;;;;12.75;35.16;100139.06;1742533;81;21208;-65
2021/03/26 12:27:48;;;;;;;13.48;8.43;;;;;;;12.81;35.21;100135.85;1737310;82;21047;-65
2021/03/26 12:30:28;;;;;;;10.93;5.58;;;;;;;12.97;35.12;100151.98;1677203;85;21137;-66
2021/03/26 12:33:11;;;;;;;13.40;7.55;;;;;;;13.07;35.18;100141.28;1728726;82;21126;-64
2021/03/26 12:35:43;;;;;;;15.53;6.12;;;;;;;13.14;35.42;100141.66;1751331;82;27177;-64
2021/03/26 12:38:26;;;;;;;7.42;6.00;;;;;;;13.10;35.36;100156.97;1749516;82;21224;-64
2021/03/26 12:41:00;;;;;;;9.57;5.23;;;;;;;13.05;35.76;100135.31;1736650;82;21039;-64
2021/03/26 12:43:45;;;;;;;9.50;5.65;;;;;;;13.11;36.10;100134.86;1750719;82;21114;-64
2021/03/26 12:46:21;;;;;;;9.60;5.75;;;;;;;13.28;36.13;100131.53;1750450;82;21034;-64
2021/03/26 12:48:58;;;;;;;4.95;4.42;;;;;;;13.35;36.00;100134.00;1747571;82;21596;-63
2021/03/26 12:51:31;;;;;;;6.25;5.12;;;;;;;13.42;35.59;100127.86;1750532;82;21437;-64
2021/03/26 12:54:36;;;;;;;8.83;5.10;;;;;;;13.50;35.50;100136.83;1738150;81;21124;-67